KHPN/HPN METAR and TAF weather

Enter ICAO airport designator
Station Type Date Time Source
KHPN METAR 2020/01/20 13:56 UTC NOAA

KHPN 201356Z 32016G24KT 10SM FEW013 M07/M15 A3021 RMK PK WND 32027/1334 SLP 240


Station Type Date Time Source
KHPN Decoded METAR 2020/01/20 13:56 UTC NOAA

WHITE PLAINS WESTCHESTER, NY, United States (KHPN) 41-04N 073-42W 121M
Jan 20, 2020 - 08:56 AM EST / 2020.01.20 1356 UTC
Wind: from the NW (320 degrees) at 18 MPH (16 KT) gusting to 28 MPH (24 KT):0
Visibility: 10 mile(s):0
Sky conditions: mostly clear
Temperature: 19 F (-7 C)
Windchill: 3 F (-16 C):1
Dew Point: 5 F (-15 C)
Relative Humidity: 52%
Pressure (altimeter): 30.21 in. Hg (1023 hPa)
ob: KHPN 201356Z 32016G24KT 10SM FEW013 M07/M15 A3021 RMK PK WND 32027/1334 SLP 240
cycle: 14

Station Type Date Time Source
KHPN TAF 2020/01/20 16:36 UTC NOAA

TAF
AMD KHPN 201533Z 2016/2112 33015G23KT P6SM SKC
FM202200 33010KT P6SM SKC
FM210500 33006KT P6SM SKC
AMD NOT SKED

Example: see airport list